sensor_id;sensor_type;location;lat;lon;timestamp;P1;durP1;ratioP1;P2;durP2;ratioP2
23001;SDS011;11667;51.706;4.856;2023-04-03T00:01:39;6.58;;;3.20;;
23001;SDS011;11667;51.706;4.856;2023-04-03T00:04:09;10.28;;;3.27;;
23001;SDS011;11667;51.706;4.856;2023-04-03T00:06:38;5.03;;;2.85;;
23001;SDS011;11667;51.706;4.856;2023-04-03T00:09:08;5.97;;;3.00;;
23001;SDS011;11667;51.706;4.856;2023-04-03T00:11:37;6.12;;;3.20;;
23001;SDS011;11667;51.706;4.856;2023-04-03T00:14:07;6.80;;;3.10;;
23001;SDS011;11667;51.706;4.856;2023-04-03T00:16:36;7.58;;;3.15;;
23001;SDS011;11667;51.706;4.856;2023-04-03T00:19:06;7.08;;;3.00;;
23001;SDS011;11667;51.706;4.856;2023-04-03T00:21:35;5.72;;;3.10;;
23001;SDS011;11667;51.706;4.856;2023-04-03T00:24:04;8.03;;;3.00;;
23001;SDS011;11667;51.706;4.856;2023-04-03T00:26:34;8.68;;;3.00;;
23001;SDS011;11667;51.706;4.856;2023-04-03T00:29:03;8.50;;;2.98;;
23001;SDS011;11667;51.706;4.856;2023-04-03T00:31:32;4.67;;;2.65;;
23001;SDS011;11667;51.706;4.856;2023-04-03T00:34:02;7.67;;;3.08;;
23001;SDS011;11667;51.706;4.856;2023-04-03T00:36:31;6.50;;;3.27;;
23001;SDS011;11667;51.706;4.856;2023-04-03T00:39:01;6.83;;;3.27;;
23001;SDS011;11667;51.706;4.856;2023-04-03T00:41:30;7.58;;;3.00;;
23001;SDS011;11667;51.706;4.856;2023-04-03T00:44:00;7.20;;;3.10;;
23001;SDS011;11667;51.706;4.856;2023-04-03T00:46:29;6.97;;;3.12;;
23001;SDS011;11667;51.706;4.856;2023-04-03T00:48:58;5.87;;;3.37;;
23001;SDS011;11667;51.706;4.856;2023-04-03T00:51:28;6.47;;;3.20;;
23001;SDS011;11667;51.706;4.856;2023-04-03T00:54:01;6.53;;;3.58;;
23001;SDS011;11667;51.706;4.856;2023-04-03T00:56:31;6.10;;;3.05;;
23001;SDS011;11667;51.706;4.856;2023-04-03T00:59:06;6.95;;;3.42;;
23001;SDS011;11667;51.706;4.856;2023-04-03T01:01:42;10.43;;;3.22;;
23001;SDS011;11667;51.706;4.856;2023-04-03T01:04:28;7.45;;;3.25;;
23001;SDS011;11667;51.706;4.856;2023-04-03T01:07:08;7.15;;;3.25;;
23001;SDS011;11667;51.706;4.856;2023-04-03T01:09:39;7.05;;;3.20;;
23001;SDS011;11667;51.706;4.856;2023-04-03T01:15:03;5.17;;;3.05;;
23001;SDS011;11667;51.706;4.856;2023-04-03T01:17:32;4.83;;;2.65;;
23001;SDS011;11667;51.706;4.856;2023-04-03T01:30:50;7.10;;;2.90;;
23001;SDS011;11667;51.706;4.856;2023-04-03T01:33:24;7.08;;;3.20;;
23001;SDS011;11667;51.706;4.856;2023-04-03T01:35:53;7.37;;;3.50;;
23001;SDS011;11667;51.706;4.856;2023-04-03T01:38:23;8.93;;;3.62;;
23001;SDS011;11667;51.706;4.856;2023-04-03T01:40:53;9.03;;;3.50;;
23001;SDS011;11667;51.706;4.856;2023-04-03T01:43:23;5.42;;;3.22;;
23001;SDS011;11667;51.706;4.856;2023-04-03T01:45:52;7.85;;;3.30;;
23001;SDS011;11667;51.706;4.856;2023-04-03T01:48:23;5.80;;;3.30;;
23001;SDS011;11667;51.706;4.856;2023-04-03T01:50:53;8.05;;;3.33;;
23001;SDS011;11667;51.706;4.856;2023-04-03T01:53:22;6.67;;;3.52;;
23001;SDS011;11667;51.706;4.856;2023-04-03T01:55:52;7.22;;;3.30;;
23001;SDS011;11667;51.706;4.856;2023-04-03T01:58:23;10.20;;;4.03;;
23001;SDS011;11667;51.706;4.856;2023-04-03T02:00:53;6.37;;;3.52;;
23001;SDS011;11667;51.706;4.856;2023-04-03T02:03:22;7.28;;;3.90;;
23001;SDS011;11667;51.706;4.856;2023-04-03T02:05:51;7.65;;;3.62;;
23001;SDS011;11667;51.706;4.856;2023-04-03T02:08:21;8.18;;;3.83;;
23001;SDS011;11667;51.706;4.856;2023-04-03T02:10:51;6.35;;;3.20;;
23001;SDS011;11667;51.706;4.856;2023-04-03T02:13:20;10.63;;;3.87;;
23001;SDS011;11667;51.706;4.856;2023-04-03T02:15:50;7.65;;;3.70;;
23001;SDS011;11667;51.706;4.856;2023-04-03T02:18:19;8.63;;;3.62;;
23001;SDS011;11667;51.706;4.856;2023-04-03T02:20:48;7.08;;;3.50;;
23001;SDS011;11667;51.706;4.856;2023-04-03T02:23:18;8.35;;;3.45;;
23001;SDS011;11667;51.706;4.856;2023-04-03T02:25:47;6.95;;;3.50;;
23001;SDS011;11667;51.706;4.856;2023-04-03T02:28:17;6.58;;;3.67;;
23001;SDS011;11667;51.706;4.856;2023-04-03T02:30:46;9.53;;;4.17;;
23001;SDS011;11667;51.706;4.856;2023-04-03T02:33:15;9.33;;;3.87;;
23001;SDS011;11667;51.706;4.856;2023-04-03T02:35:45;7.67;;;3.95;;
23001;SDS011;11667;51.706;4.856;2023-04-03T02:38:16;7.40;;;3.95;;
23001;SDS011;11667;51.706;4.856;2023-04-03T02:40:46;10.45;;;3.90;;
23001;SDS011;11667;51.706;4.856;2023-04-03T02:43:15;8.15;;;3.98;;
23001;SDS011;11667;51.706;4.856;2023-04-03T02:45:45;7.50;;;4.17;;
23001;SDS011;11667;51.706;4.856;2023-04-03T02:48:15;8.75;;;4.05;;
23001;SDS011;11667;51.706;4.856;2023-04-03T02:50:44;9.10;;;4.15;;
23001;SDS011;11667;51.706;4.856;2023-04-03T02:53:14;7.80;;;4.22;;
23001;SDS011;11667;51.706;4.856;2023-04-03T02:55:43;8.65;;;4.05;;
23001;SDS011;11667;51.706;4.856;2023-04-03T02:58:13;6.58;;;4.10;;
23001;SDS011;11667;51.706;4.856;2023-04-03T03:00:43;10.03;;;4.75;;
23001;SDS011;11667;51.706;4.856;2023-04-03T03:03:12;7.78;;;3.83;;
23001;SDS011;11667;51.706;4.856;2023-04-03T03:05:42;6.45;;;3.95;;
23001;SDS011;11667;51.706;4.856;2023-04-03T03:08:12;9.80;;;3.98;;
23001;SDS011;11667;51.706;4.856;2023-04-03T03:10:41;7.75;;;4.10;;
23001;SDS011;11667;51.706;4.856;2023-04-03T03:13:10;8.85;;;4.70;;
23001;SDS011;11667;51.706;4.856;2023-04-03T03:15:40;7.92;;;3.90;;
23001;SDS011;11667;51.706;4.856;2023-04-03T03:18:10;7.40;;;3.90;;
23001;SDS011;11667;51.706;4.856;2023-04-03T03:20:39;10.50;;;4.42;;
23001;SDS011;11667;51.706;4.856;2023-04-03T03:23:09;9.45;;;4.45;;
23001;SDS011;11667;51.706;4.856;2023-04-03T03:25:41;10.20;;;4.40;;
23001;SDS011;11667;51.706;4.856;2023-04-03T03:28:11;9.90;;;4.40;;
23001;SDS011;11667;51.706;4.856;2023-04-03T03:30:40;10.30;;;4.03;;
23001;SDS011;11667;51.706;4.856;2023-04-03T03:33:10;9.55;;;4.35;;
23001;SDS011;11667;51.706;4.856;2023-04-03T03:35:39;10.95;;;4.75;;
23001;SDS011;11667;51.706;4.856;2023-04-03T03:38:09;8.78;;;4.50;;
23001;SDS011;11667;51.706;4.856;2023-04-03T03:40:39;10.70;;;5.20;;
23001;SDS011;11667;51.706;4.856;2023-04-03T03:43:09;12.10;;;4.72;;
23001;SDS011;11667;51.706;4.856;2023-04-03T03:45:38;12.25;;;5.05;;
23001;SDS011;11667;51.706;4.856;2023-04-03T03:48:07;9.80;;;4.58;;
23001;SDS011;11667;51.706;4.856;2023-04-03T03:50:37;12.68;;;4.97;;
23001;SDS011;11667;51.706;4.856;2023-04-03T03:53:06;8.23;;;4.62;;
23001;SDS011;11667;51.706;4.856;2023-04-03T03:55:36;9.73;;;4.97;;
23001;SDS011;11667;51.706;4.856;2023-04-03T03:58:06;11.95;;;5.05;;
23001;SDS011;11667;51.706;4.856;2023-04-03T04:00:36;9.40;;;4.53;;
23001;SDS011;11667;51.706;4.856;2023-04-03T04:03:05;9.60;;;4.90;;
23001;SDS011;11667;51.706;4.856;2023-04-03T04:05:35;10.10;;;4.95;;
23001;SDS011;11667;51.706;4.856;2023-04-03T04:08:05;10.10;;;5.20;;
23001;SDS011;11667;51.706;4.856;2023-04-03T04:10:34;10.68;;;5.35;;
23001;SDS011;11667;51.706;4.856;2023-04-03T04:13:05;10.63;;;4.95;;
23001;SDS011;11667;51.706;4.856;2023-04-03T04:15:34;13.08;;;5.40;;
23001;SDS011;11667;51.706;4.856;2023-04-03T04:18:05;14.50;;;5.72;;
23001;SDS011;11667;51.706;4.856;2023-04-03T04:20:35;11.08;;;5.47;;
23001;SDS011;11667;51.706;4.856;2023-04-03T04:23:05;10.68;;;5.35;;
23001;SDS011;11667;51.706;4.856;2023-04-03T04:25:35;13.15;;;5.42;;
23001;SDS011;11667;51.706;4.856;2023-04-03T04:28:05;9.18;;;4.70;;
23001;SDS011;11667;51.706;4.856;2023-04-03T04:30:35;12.88;;;5.40;;
23001;SDS011;11667;51.706;4.856;2023-04-03T04:33:05;12.58;;;5.35;;
23001;SDS011;11667;51.706;4.856;2023-04-03T04:35:35;12.60;;;5.35;;
23001;SDS011;11667;51.706;4.856;2023-04-03T04:38:05;13.53;;;5.90;;
23001;SDS011;11667;51.706;4.856;2023-04-03T04:40:36;15.90;;;6.67;;
23001;SDS011;11667;51.706;4.856;2023-04-03T04:43:06;15.25;;;7.35;;
23001;SDS011;11667;51.706;4.856;2023-04-03T04:45:36;19.73;;;8.83;;
23001;SDS011;11667;51.706;4.856;2023-04-03T04:48:06;16.60;;;7.53;;
23001;SDS011;11667;51.706;4.856;2023-04-03T04:50:36;15.10;;;6.90;;
23001;SDS011;11667;51.706;4.856;2023-04-03T04:53:05;11.40;;;5.70;;
23001;SDS011;11667;51.706;4.856;2023-04-03T04:55:36;13.05;;;5.62;;
23001;SDS011;11667;51.706;4.856;2023-04-03T04:58:06;14.00;;;5.33;;
23001;SDS011;11667;51.706;4.856;2023-04-03T05:00:35;10.78;;;5.30;;
23001;SDS011;11667;51.706;4.856;2023-04-03T05:03:05;10.32;;;5.10;;
23001;SDS011;11667;51.706;4.856;2023-04-03T05:05:35;7.80;;;4.67;;
23001;SDS011;11667;51.706;4.856;2023-04-03T05:08:07;12.10;;;5.62;;
23001;SDS011;11667;51.706;4.856;2023-04-03T05:10:37;12.45;;;6.12;;
23001;SDS011;11667;51.706;4.856;2023-04-03T05:13:09;12.73;;;6.20;;
23001;SDS011;11667;51.706;4.856;2023-04-03T05:15:39;16.35;;;7.17;;
23001;SDS011;11667;51.706;4.856;2023-04-03T05:18:08;21.02;;;8.53;;
23001;SDS011;11667;51.706;4.856;2023-04-03T05:20:38;21.45;;;9.25;;
23001;SDS011;11667;51.706;4.856;2023-04-03T05:23:08;20.80;;;9.48;;
23001;SDS011;11667;51.706;4.856;2023-04-03T05:25:39;29.20;;;10.82;;
23001;SDS011;11667;51.706;4.856;2023-04-03T05:28:12;23.98;;;10.18;;
23001;SDS011;11667;51.706;4.856;2023-04-03T05:30:41;25.43;;;10.28;;
23001;SDS011;11667;51.706;4.856;2023-04-03T05:33:11;21.00;;;9.98;;
23001;SDS011;11667;51.706;4.856;2023-04-03T05:35:46;22.95;;;9.35;;
23001;SDS011;11667;51.706;4.856;2023-04-03T05:38:18;17.15;;;7.75;;
23001;SDS011;11667;51.706;4.856;2023-04-03T05:40:48;15.68;;;7.30;;
23001;SDS011;11667;51.706;4.856;2023-04-03T05:43:17;17.87;;;7.50;;
23001;SDS011;11667;51.706;4.856;2023-04-03T05:45:48;15.90;;;7.28;;
23001;SDS011;11667;51.706;4.856;2023-04-03T05:48:19;13.55;;;6.15;;
23001;SDS011;11667;51.706;4.856;2023-04-03T05:50:49;11.22;;;5.62;;
23001;SDS011;11667;51.706;4.856;2023-04-03T05:53:24;9.10;;;4.40;;
23001;SDS011;11667;51.706;4.856;2023-04-03T05:55:57;9.68;;;4.80;;
23001;SDS011;11667;51.706;4.856;2023-04-03T05:58:28;12.43;;;4.50;;
23001;SDS011;11667;51.706;4.856;2023-04-03T06:00:58;7.62;;;3.85;;
23001;SDS011;11667;51.706;4.856;2023-04-03T06:03:28;7.05;;;3.83;;
23001;SDS011;11667;51.706;4.856;2023-04-03T06:05:58;9.90;;;3.90;;
23001;SDS011;11667;51.706;4.856;2023-04-03T06:08:27;8.55;;;3.75;;
23001;SDS011;11667;51.706;4.856;2023-04-03T06:10:57;8.23;;;4.05;;
23001;SDS011;11667;51.706;4.856;2023-04-03T06:13:27;10.35;;;4.40;;
23001;SDS011;11667;51.706;4.856;2023-04-03T06:15:57;10.93;;;4.20;;
23001;SDS011;11667;51.706;4.856;2023-04-03T06:18:26;12.47;;;5.10;;
23001;SDS011;11667;51.706;4.856;2023-04-03T06:20:56;11.85;;;4.50;;
23001;SDS011;11667;51.706;4.856;2023-04-03T06:23:26;11.20;;;4.55;;
23001;SDS011;11667;51.706;4.856;2023-04-03T06:25:56;12.47;;;4.95;;
23001;SDS011;11667;51.706;4.856;2023-04-03T06:28:25;7.50;;;3.47;;
23001;SDS011;11667;51.706;4.856;2023-04-03T06:30:55;10.63;;;3.87;;
23001;SDS011;11667;51.706;4.856;2023-04-03T06:33:25;11.65;;;4.00;;
23001;SDS011;11667;51.706;4.856;2023-04-03T06:35:58;8.80;;;3.80;;
23001;SDS011;11667;51.706;4.856;2023-04-03T06:38:28;11.40;;;4.37;;
23001;SDS011;11667;51.706;4.856;2023-04-03T06:40:57;9.78;;;3.80;;
23001;SDS011;11667;51.706;4.856;2023-04-03T06:43:28;8.33;;;3.30;;
23001;SDS011;11667;51.706;4.856;2023-04-03T06:46:00;5.28;;;2.70;;
23001;SDS011;11667;51.706;4.856;2023-04-03T06:48:30;8.00;;;3.30;;
23001;SDS011;11667;51.706;4.856;2023-04-03T06:50:59;6.85;;;3.25;;
23001;SDS011;11667;51.706;4.856;2023-04-03T06:53:29;9.58;;;2.80;;
23001;SDS011;11667;51.706;4.856;2023-04-03T06:55:59;7.65;;;3.70;;
23001;SDS011;11667;51.706;4.856;2023-04-03T06:58:28;6.12;;;3.20;;
23001;SDS011;11667;51.706;4.856;2023-04-03T07:00:58;6.92;;;2.85;;
23001;SDS011;11667;51.706;4.856;2023-04-03T07:03:27;4.95;;;3.10;;
23001;SDS011;11667;51.706;4.856;2023-04-03T07:05:57;7.20;;;2.62;;
23001;SDS011;11667;51.706;4.856;2023-04-03T07:08:26;7.92;;;2.90;;
23001;SDS011;11667;51.706;4.856;2023-04-03T07:10:56;6.42;;;3.00;;
23001;SDS011;11667;51.706;4.856;2023-04-03T07:13:26;5.70;;;2.40;;
23001;SDS011;11667;51.706;4.856;2023-04-03T07:15:56;7.80;;;2.35;;
23001;SDS011;11667;51.706;4.856;2023-04-03T07:18:25;6.17;;;2.58;;
23001;SDS011;11667;51.706;4.856;2023-04-03T07:20:55;6.10;;;2.55;;
23001;SDS011;11667;51.706;4.856;2023-04-03T07:23:24;5.40;;;2.30;;
23001;SDS011;11667;51.706;4.856;2023-04-03T07:25:54;8.35;;;2.22;;
23001;SDS011;11667;51.706;4.856;2023-04-03T07:28:23;6.00;;;2.30;;
23001;SDS011;11667;51.706;4.856;2023-04-03T07:30:54;7.12;;;2.62;;
23001;SDS011;11667;51.706;4.856;2023-04-03T07:33:26;5.17;;;2.40;;
23001;SDS011;11667;51.706;4.856;2023-04-03T07:35:56;4.90;;;2.20;;
23001;SDS011;11667;51.706;4.856;2023-04-03T07:38:26;8.50;;;3.27;;
23001;SDS011;11667;51.706;4.856;2023-04-03T07:40:55;7.67;;;2.60;;
23001;SDS011;11667;51.706;4.856;2023-04-03T07:43:25;5.10;;;2.52;;
23001;SDS011;11667;51.706;4.856;2023-04-03T07:45:54;6.37;;;2.70;;
23001;SDS011;11667;51.706;4.856;2023-04-03T07:48:24;6.97;;;2.83;;
23001;SDS011;11667;51.706;4.856;2023-04-03T07:50:54;6.60;;;2.70;;
23001;SDS011;11667;51.706;4.856;2023-04-03T07:53:29;5.03;;;2.30;;
23001;SDS011;11667;51.706;4.856;2023-04-03T07:55:59;7.22;;;2.50;;
23001;SDS011;11667;51.706;4.856;2023-04-03T07:58:30;7.00;;;2.67;;
23001;SDS011;11667;51.706;4.856;2023-04-03T08:00:59;8.35;;;2.52;;
23001;SDS011;11667;51.706;4.856;2023-04-03T08:03:29;5.03;;;2.40;;
23001;SDS011;11667;51.706;4.856;2023-04-03T08:06:05;8.88;;;2.65;;
23001;SDS011;11667;51.706;4.856;2023-04-03T08:08:37;7.60;;;2.65;;
23001;SDS011;11667;51.706;4.856;2023-04-03T08:11:07;6.75;;;3.47;;
23001;SDS011;11667;51.706;4.856;2023-04-03T08:13:36;6.10;;;2.65;;
23001;SDS011;11667;51.706;4.856;2023-04-03T08:16:09;10.48;;;2.50;;
23001;SDS011;11667;51.706;4.856;2023-04-03T08:18:41;5.62;;;2.77;;
23001;SDS011;11667;51.706;4.856;2023-04-03T08:21:10;5.53;;;2.42;;
23001;SDS011;11667;51.706;4.856;2023-04-03T08:23:40;7.12;;;2.55;;
23001;SDS011;11667;51.706;4.856;2023-04-03T08:26:11;5.90;;;2.67;;
23001;SDS011;11667;51.706;4.856;2023-04-03T08:28:41;7.70;;;2.90;;
23001;SDS011;11667;51.706;4.856;2023-04-03T08:31:12;12.25;;;3.70;;
23001;SDS011;11667;51.706;4.856;2023-04-03T08:33:43;9.60;;;3.58;;
23001;SDS011;11667;51.706;4.856;2023-04-03T08:36:18;8.68;;;2.75;;
23001;SDS011;11667;51.706;4.856;2023-04-03T08:38:52;4.30;;;2.25;;
23001;SDS011;11667;51.706;4.856;2023-04-03T08:41:38;5.70;;;2.40;;
23001;SDS011;11667;51.706;4.856;2023-04-03T08:44:22;7.58;;;2.72;;
23001;SDS011;11667;51.706;4.856;2023-04-03T08:47:47;6.83;;;3.00;;
23001;SDS011;11667;51.706;4.856;2023-04-03T08:49:56;8.50;;;2.50;;
23001;SDS011;11667;51.706;4.856;2023-04-03T08:52:38;9.83;;;3.35;;
23001;SDS011;11667;51.706;4.856;2023-04-03T08:58:03;6.87;;;2.92;;
23001;SDS011;11667;51.706;4.856;2023-04-03T09:00:43;8.05;;;2.33;;
23001;SDS011;11667;51.706;4.856;2023-04-03T09:03:19;4.78;;;2.27;;
23001;SDS011;11667;51.706;4.856;2023-04-03T09:05:54;10.82;;;3.33;;
23001;SDS011;11667;51.706;4.856;2023-04-03T09:08:40;8.83;;;3.25;;
23001;SDS011;11667;51.706;4.856;2023-04-03T09:14:12;7.90;;;2.72;;
23001;SDS011;11667;51.706;4.856;2023-04-03T09:17:02;5.28;;;2.40;;
23001;SDS011;11667;51.706;4.856;2023-04-03T09:22:24;5.42;;;2.52;;
23001;SDS011;11667;51.706;4.856;2023-04-03T09:24:58;6.35;;;2.47;;
23001;SDS011;11667;51.706;4.856;2023-04-03T09:27:28;5.90;;;2.37;;
23001;SDS011;11667;51.706;4.856;2023-04-03T09:29:58;8.28;;;2.52;;
23001;SDS011;11667;51.706;4.856;2023-04-03T09:32:28;7.50;;;2.25;;
23001;SDS011;11667;51.706;4.856;2023-04-03T09:35:01;4.60;;;1.70;;
23001;SDS011;11667;51.706;4.856;2023-04-03T09:43:19;3.58;;;1.32;;
23001;SDS011;11667;51.706;4.856;2023-04-03T09:45:51;7.80;;;2.85;;
23001;SDS011;11667;51.706;4.856;2023-04-03T09:48:21;5.72;;;1.85;;
23001;SDS011;11667;51.706;4.856;2023-04-03T09:56:18;4.80;;;1.40;;
23001;SDS011;11667;51.706;4.856;2023-04-03T09:58:49;8.13;;;2.40;;
23001;SDS011;11667;51.706;4.856;2023-04-03T10:06:44;2.35;;;1.30;;
23001;SDS011;11667;51.706;4.856;2023-04-03T10:09:31;4.62;;;2.10;;
23001;SDS011;11667;51.706;4.856;2023-04-03T10:14:54;6.03;;;2.40;;
23001;SDS011;11667;51.706;4.856;2023-04-03T10:17:37;3.52;;;1.37;;
23001;SDS011;11667;51.706;4.856;2023-04-03T10:23:17;2.72;;;1.10;;
23001;SDS011;11667;51.706;4.856;2023-04-03T10:28:57;2.05;;;1.20;;
23001;SDS011;11667;51.706;4.856;2023-04-03T10:31:37;2.20;;;1.10;;
23001;SDS011;11667;51.706;4.856;2023-04-03T10:34:15;4.72;;;1.30;;
23001;SDS011;11667;51.706;4.856;2023-04-03T10:40:02;3.90;;;1.60;;
23001;SDS011;11667;51.706;4.856;2023-04-03T10:42:48;4.03;;;1.50;;
23001;SDS011;11667;51.706;4.856;2023-04-03T10:45:49;2.92;;;1.20;;
23001;SDS011;11667;51.706;4.856;2023-04-03T10:51:17;2.98;;;1.30;;
23001;SDS011;11667;51.706;4.856;2023-04-03T11:19:52;3.42;;;0.80;;
23001;SDS011;11667;51.706;4.856;2023-04-03T11:22:22;1.67;;;1.00;;
23001;SDS011;11667;51.706;4.856;2023-04-03T11:27:56;3.52;;;1.45;;
23001;SDS011;11667;51.706;4.856;2023-04-03T11:33:21;1.60;;;0.80;;
23001;SDS011;11667;51.706;4.856;2023-04-03T11:35:51;4.03;;;1.57;;
23001;SDS011;11667;51.706;4.856;2023-04-03T11:40:57;3.45;;;1.50;;
23001;SDS011;11667;51.706;4.856;2023-04-03T11:43:28;4.72;;;1.47;;
23001;SDS011;11667;51.706;4.856;2023-04-03T11:46:08;3.33;;;1.40;;
23001;SDS011;11667;51.706;4.856;2023-04-03T11:54:34;7.42;;;2.08;;
23001;SDS011;11667;51.706;4.856;2023-04-03T11:56:40;4.80;;;1.75;;
23001;SDS011;11667;51.706;4.856;2023-04-03T12:01:54;5.03;;;1.20;;
23001;SDS011;11667;51.706;4.856;2023-04-03T12:04:26;3.08;;;1.37;;
23001;SDS011;11667;51.706;4.856;2023-04-03T12:09:33;1.60;;;0.70;;
23001;SDS011;11667;51.706;4.856;2023-04-03T12:12:26;5.97;;;1.60;;
23001;SDS011;11667;51.706;4.856;2023-04-03T12:15:24;4.78;;;1.60;;
23001;SDS011;11667;51.706;4.856;2023-04-03T12:17:52;8.50;;;1.90;;
23001;SDS011;11667;51.706;4.856;2023-04-03T12:23:30;1.90;;;1.32;;
23001;SDS011;11667;51.706;4.856;2023-04-03T12:26:00;1.47;;;0.95;;
23001;SDS011;11667;51.706;4.856;2023-04-03T12:28:38;1.90;;;1.00;;
23001;SDS011;11667;51.706;4.856;2023-04-03T12:31:10;2.70;;;1.42;;
23001;SDS011;11667;51.706;4.856;2023-04-03T12:33:58;1.40;;;0.90;;
23001;SDS011;11667;51.706;4.856;2023-04-03T12:36:46;3.08;;;1.10;;
23001;SDS011;11667;51.706;4.856;2023-04-03T12:42:33;1.65;;;1.00;;
23001;SDS011;11667;51.706;4.856;2023-04-03T12:45:22;3.02;;;0.95;;
23001;SDS011;11667;51.706;4.856;2023-04-03T12:47:54;2.27;;;1.00;;
23001;SDS011;11667;51.706;4.856;2023-04-03T12:50:26;2.10;;;1.10;;
23001;SDS011;11667;51.706;4.856;2023-04-03T12:53:10;3.22;;;1.10;;
23001;SDS011;11667;51.706;4.856;2023-04-03T12:55:41;2.33;;;0.90;;
23001;SDS011;11667;51.706;4.856;2023-04-03T12:58:21;1.30;;;1.00;;
23001;SDS011;11667;51.706;4.856;2023-04-03T13:00:46;3.08;;;1.02;;
23001;SDS011;11667;51.706;4.856;2023-04-03T13:03:22;2.50;;;1.00;;
23001;SDS011;11667;51.706;4.856;2023-04-03T13:05:56;1.40;;;0.90;;
23001;SDS011;11667;51.706;4.856;2023-04-03T13:08:27;2.37;;;0.90;;
23001;SDS011;11667;51.706;4.856;2023-04-03T13:10:59;2.42;;;1.25;;
23001;SDS011;11667;51.706;4.856;2023-04-03T13:13:37;3.05;;;1.15;;
23001;SDS011;11667;51.706;4.856;2023-04-03T13:16:10;2.58;;;1.17;;
23001;SDS011;11667;51.706;4.856;2023-04-03T13:18:42;2.52;;;0.98;;
23001;SDS011;11667;51.706;4.856;2023-04-03T13:21:15;2.35;;;1.37;;
23001;SDS011;11667;51.706;4.856;2023-04-03T13:23:48;1.55;;;1.00;;
23001;SDS011;11667;51.706;4.856;2023-04-03T13:26:22;2.40;;;0.98;;
23001;SDS011;11667;51.706;4.856;2023-04-03T13:28:54;1.95;;;1.10;;
23001;SDS011;11667;51.706;4.856;2023-04-03T13:34:04;3.77;;;1.30;;
23001;SDS011;11667;51.706;4.856;2023-04-03T13:36:45;3.00;;;1.57;;
23001;SDS011;11667;51.706;4.856;2023-04-03T13:39:33;2.33;;;1.30;;
23001;SDS011;11667;51.706;4.856;2023-04-03T13:42:20;3.37;;;1.60;;
23001;SDS011;11667;51.706;4.856;2023-04-03T13:47:42;2.87;;;1.40;;
23001;SDS011;11667;51.706;4.856;2023-04-03T13:52:52;5.30;;;1.67;;
23001;SDS011;11667;51.706;4.856;2023-04-03T13:55:23;3.33;;;1.57;;
23001;SDS011;11667;51.706;4.856;2023-04-03T13:57:56;3.15;;;1.47;;
23001;SDS011;11667;51.706;4.856;2023-04-03T14:00:38;3.42;;;1.62;;
23001;SDS011;11667;51.706;4.856;2023-04-03T14:03:31;3.22;;;1.50;;
23001;SDS011;11667;51.706;4.856;2023-04-03T14:05:48;4.08;;;1.60;;
23001;SDS011;11667;51.706;4.856;2023-04-03T14:08:18;3.05;;;1.40;;
23001;SDS011;11667;51.706;4.856;2023-04-03T14:10:49;5.90;;;1.65;;
23001;SDS011;11667;51.706;4.856;2023-04-03T14:13:19;5.45;;;1.80;;
23001;SDS011;11667;51.706;4.856;2023-04-03T14:15:49;9.90;;;2.62;;
23001;SDS011;11667;51.706;4.856;2023-04-03T14:18:19;18.15;;;3.50;;
23001;SDS011;11667;51.706;4.856;2023-04-03T14:20:49;2.35;;;1.50;;
23001;SDS011;11667;51.706;4.856;2023-04-03T14:23:18;3.80;;;1.50;;
23001;SDS011;11667;51.706;4.856;2023-04-03T14:25:48;3.98;;;1.60;;
23001;SDS011;11667;51.706;4.856;2023-04-03T14:28:19;5.35;;;1.62;;
23001;SDS011;11667;51.706;4.856;2023-04-03T14:30:50;5.45;;;1.70;;
23001;SDS011;11667;51.706;4.856;2023-04-03T14:33:21;4.35;;;1.70;;
23001;SDS011;11667;51.706;4.856;2023-04-03T14:35:51;1.90;;;1.30;;
23001;SDS011;11667;51.706;4.856;2023-04-03T14:38:27;8.25;;;3.65;;
23001;SDS011;11667;51.706;4.856;2023-04-03T14:40:57;4.80;;;1.82;;
23001;SDS011;11667;51.706;4.856;2023-04-03T14:43:29;4.15;;;1.70;;
23001;SDS011;11667;51.706;4.856;2023-04-03T14:45:58;3.92;;;1.82;;
23001;SDS011;11667;51.706;4.856;2023-04-03T14:48:28;3.80;;;1.70;;
23001;SDS011;11667;51.706;4.856;2023-04-03T14:50:58;4.78;;;1.70;;
23001;SDS011;11667;51.706;4.856;2023-04-03T14:53:30;2.83;;;1.70;;
23001;SDS011;11667;51.706;4.856;2023-04-03T14:56:01;4.53;;;1.95;;
23001;SDS011;11667;51.706;4.856;2023-04-03T14:58:32;4.28;;;1.75;;
23001;SDS011;11667;51.706;4.856;2023-04-03T15:01:04;2.58;;;1.50;;
23001;SDS011;11667;51.706;4.856;2023-04-03T15:03:34;4.25;;;2.12;;
23001;SDS011;11667;51.706;4.856;2023-04-03T15:06:03;3.10;;;1.65;;
23001;SDS011;11667;51.706;4.856;2023-04-03T15:08:33;4.55;;;1.57;;
23001;SDS011;11667;51.706;4.856;2023-04-03T15:11:03;3.35;;;1.50;;
23001;SDS011;11667;51.706;4.856;2023-04-03T15:13:32;5.92;;;2.00;;
23001;SDS011;11667;51.706;4.856;2023-04-03T15:16:02;3.33;;;1.80;;
23001;SDS011;11667;51.706;4.856;2023-04-03T15:18:35;2.92;;;1.70;;
23001;SDS011;11667;51.706;4.856;2023-04-03T15:21:05;3.55;;;1.80;;
23001;SDS011;11667;51.706;4.856;2023-04-03T15:23:34;8.15;;;2.83;;
23001;SDS011;11667;51.706;4.856;2023-04-03T15:26:03;3.35;;;1.57;;
23001;SDS011;11667;51.706;4.856;2023-04-03T15:28:35;3.58;;;1.67;;
23001;SDS011;11667;51.706;4.856;2023-04-03T15:31:06;2.75;;;1.77;;
23001;SDS011;11667;51.706;4.856;2023-04-03T15:33:36;4.10;;;2.15;;
23001;SDS011;11667;51.706;4.856;2023-04-03T15:36:06;4.08;;;1.70;;
23001;SDS011;11667;51.706;4.856;2023-04-03T15:38:37;3.77;;;1.77;;
23001;SDS011;11667;51.706;4.856;2023-04-03T15:41:07;3.33;;;1.55;;
23001;SDS011;11667;51.706;4.856;2023-04-03T15:43:36;5.35;;;1.72;;
23001;SDS011;11667;51.706;4.856;2023-04-03T15:46:06;3.85;;;2.12;;
23001;SDS011;11667;51.706;4.856;2023-04-03T15:48:36;4.55;;;1.98;;
23001;SDS011;11667;51.706;4.856;2023-04-03T15:51:06;3.22;;;1.90;;
23001;SDS011;11667;51.706;4.856;2023-04-03T15:53:35;7.65;;;2.40;;
23001;SDS011;11667;51.706;4.856;2023-04-03T15:56:04;5.12;;;2.47;;
23001;SDS011;11667;51.706;4.856;2023-04-03T15:58:35;4.15;;;1.98;;
23001;SDS011;11667;51.706;4.856;2023-04-03T16:01:05;6.58;;;2.72;;
23001;SDS011;11667;51.706;4.856;2023-04-03T16:03:34;4.97;;;2.62;;
23001;SDS011;11667;51.706;4.856;2023-04-03T16:06:05;9.38;;;4.33;;
23001;SDS011;11667;51.706;4.856;2023-04-03T16:08:35;6.03;;;2.83;;
23001;SDS011;11667;51.706;4.856;2023-04-03T16:11:06;4.40;;;2.00;;
23001;SDS011;11667;51.706;4.856;2023-04-03T16:13:35;6.10;;;2.08;;
23001;SDS011;11667;51.706;4.856;2023-04-03T16:16:05;6.97;;;2.70;;
23001;SDS011;11667;51.706;4.856;2023-04-03T16:18:35;3.92;;;2.25;;
23001;SDS011;11667;51.706;4.856;2023-04-03T16:21:05;6.92;;;3.60;;
23001;SDS011;11667;51.706;4.856;2023-04-03T16:23:35;8.65;;;2.62;;
23001;SDS011;11667;51.706;4.856;2023-04-03T16:26:05;4.28;;;2.00;;
23001;SDS011;11667;51.706;4.856;2023-04-03T16:28:34;6.50;;;2.30;;
23001;SDS011;11667;51.706;4.856;2023-04-03T16:31:04;4.00;;;1.87;;
23001;SDS011;11667;51.706;4.856;2023-04-03T16:33:34;4.70;;;2.00;;
23001;SDS011;11667;51.706;4.856;2023-04-03T16:36:04;5.25;;;2.00;;
23001;SDS011;11667;51.706;4.856;2023-04-03T16:38:34;4.75;;;2.60;;
23001;SDS011;11667;51.706;4.856;2023-04-03T16:41:04;3.62;;;2.10;;
23001;SDS011;11667;51.706;4.856;2023-04-03T16:43:33;5.85;;;2.52;;
23001;SDS011;11667;51.706;4.856;2023-04-03T16:46:04;5.53;;;2.60;;
23001;SDS011;11667;51.706;4.856;2023-04-03T16:48:33;5.17;;;2.10;;
23001;SDS011;11667;51.706;4.856;2023-04-03T16:51:03;6.83;;;3.60;;
23001;SDS011;11667;51.706;4.856;2023-04-03T16:53:32;6.25;;;3.20;;
23001;SDS011;11667;51.706;4.856;2023-04-03T16:56:03;4.40;;;1.87;;
23001;SDS011;11667;51.706;4.856;2023-04-03T16:58:32;6.50;;;3.10;;
23001;SDS011;11667;51.706;4.856;2023-04-03T17:01:09;8.70;;;3.35;;
23001;SDS011;11667;51.706;4.856;2023-04-03T17:03:40;4.70;;;2.42;;
23001;SDS011;11667;51.706;4.856;2023-04-03T17:06:09;6.90;;;3.17;;